アテネ の空港の天気 - METARとTAF

アテネ国際空港 ( LGAV / ATH ) - ギリシャ アテネ
飛行場実況気象(Metar)
観測時間05/27 14:20 EEST (05/27 11:20 UTC)
風向・風速北北東 11m/s
視程10km以上
天気現象
少しの雲 雲底高度 610m
全天の8割程度の雲 雲底高度 1070m
気温25℃
湿度54%
気圧1017hPa
METARLGAV 271120Z 02021KT 9999 FEW020 BKN035 25/15 Q1017 NOSIG
過去の天気等 Google飛行場航空写真 Wunderground天気予報

過去48時間のMETAR

飛行場予報(TAF)
発表時間: 5/27 14:00 EEST (5/27 11:00 UTC)
予報対象時間: 27日15時 EEST ~ 28日15時 EEST
風向・風速北 10m/s 瞬間風速 15m/s
視程10km以上
少しの雲 雲底高度 610m
全天の8割程度の雲 雲底高度 1070m
27日19時 EEST ~ 27日21時 EEST に徐々に
風向・風速北北東 8m/s
少しの雲 雲底高度 910m
28日7時 EEST ~ 28日9時 EEST に徐々に
風向・風速北北東 9m/s 瞬間風速 14m/s
TAF LGAV 271100Z 2712/2812 01020G30KT 9999 FEW020 BKN035
BECMG 2716/2718 02015KT FEW030
BECMG 2804/2806 02017G27KT